Time;durP1;ratioP1;P1;durP2;ratioP2;P2;SDS_P1;SDS_P2;PMS_P1;PMS_P2;Temp;Humidity;BMP_temperature;BMP_pressure;BME280_temperature;BME280_humidity;BME280_pressure;Samples;Min_cycle;Max_cycle;Signal;HPM_P1;HPM_P2
2023/01/12 00:00:31;;;;;;;12.90;2.90;;;8.40;99.90;;;;;;2612063;39;20909;-70
2023/01/12 00:06:20;;;;;;;11.67;3.40;;;8.40;99.90;;;;;;2613979;54;20122;-69
2023/01/12 00:12:10;;;;;;;19.50;2.73;;;8.40;99.90;;;;;;2613986;54;20395;-70
2023/01/12 00:17:58;;;;;;;5.50;2.57;;;8.40;99.90;;;;;;2613143;54;20395;-68
2023/01/12 00:23:46;;;;;;;5.67;1.70;;;8.40;99.90;;;;;;2614097;54;20403;-69
2023/01/12 00:29:35;;;;;;;13.00;2.70;;;8.40;99.90;;;;;;2613971;54;20137;-69
2023/01/12 00:35:23;;;;;;;7.47;2.33;;;8.40;99.90;;;;;;2614768;54;20519;-69
2023/01/12 00:47:21;;;;;;;12.90;3.10;;;8.40;99.90;;;;;;2614794;54;20399;-69
2023/01/12 00:56:46;;;;;;;17.73;3.27;;;8.50;99.90;;;;;;2613992;54;21001;-69
2023/01/12 01:02:34;;;;;;;15.30;2.73;;;8.40;99.90;;;;;;2612425;39;20817;-69
2023/01/12 01:08:22;;;;;;;6.43;3.07;;;8.50;99.90;;;;;;2613621;54;20181;-72
2023/01/12 01:14:09;;;;;;;4.80;2.63;;;8.50;99.90;;;;;;2614239;54;20139;-70
2023/01/12 01:19:57;;;;;;;8.40;2.10;;;8.60;99.90;;;;;;2612551;54;20135;-68
2023/01/12 01:25:45;;;;;;;14.30;3.07;;;8.50;99.90;;;;;;2614540;54;20146;-70
2023/01/12 01:31:33;;;;;;;5.50;2.93;;;8.60;99.90;;;;;;2613332;54;20255;-69
2023/01/12 01:37:21;;;;;;;14.80;5.37;;;8.70;99.90;;;;;;2613007;54;20434;-70
2023/01/12 01:43:15;;;;;;;8.90;2.77;;;8.70;99.90;;;;;;2614622;54;20142;-69
2023/01/12 02:05:26;;;;;;;8.63;3.77;;;9.00;99.90;;;;;;2612266;54;20383;-69
2023/01/12 02:17:20;;;;;;;8.30;2.60;;;8.90;99.90;;;;;;2612673;54;20403;-69
2023/01/12 02:34:03;;;;;;;13.70;3.37;;;9.00;99.90;;;;;;2610440;54;20523;-68
2023/01/12 02:46:26;;;;;;;9.07;3.27;;;8.80;99.90;;;;;;2611387;39;20901;-69
2023/01/12 02:52:15;;;;;;;24.17;5.13;;;8.90;99.90;;;;;;2611316;54;20377;-69
2023/01/12 02:58:07;;;;;;;6.80;2.47;;;8.80;99.90;;;;;;2612304;54;20403;-70
2023/01/12 03:03:58;;;;;;;16.03;3.77;;;8.70;99.90;;;;;;2611608;54;20407;-68
2023/01/12 03:16:03;;;;;;;19.07;4.97;;;8.70;99.90;;;;;;2612846;54;20367;-69
2023/01/12 03:21:54;;;;;;;8.47;3.23;;;8.50;99.90;;;;;;2614765;54;20412;-69
2023/01/12 03:27:46;;;;;;;21.10;4.07;;;8.60;99.90;;;;;;2614795;54;20924;-71
2023/01/12 03:33:35;;;;;;;7.63;2.93;;;8.60;99.90;;;;;;2614167;54;20392;-69
2023/01/12 03:50:22;;;;;;;15.37;2.40;;;8.70;99.90;;;;;;2614768;54;20394;-70
2023/01/12 03:56:12;;;;;;;10.67;2.90;;;8.80;99.90;;;;;;2614542;39;21376;-71
2023/01/12 04:02:00;;;;;;;16.40;2.93;;;8.70;99.90;;;;;;2611874;54;21176;-70
2023/01/12 04:07:48;;;;;;;3.83;1.40;;;8.70;99.90;;;;;;2612597;54;20226;-70
2023/01/12 04:13:35;;;;;;;13.10;2.43;;;8.80;99.90;;;;;;2613316;54;20126;-70
2023/01/12 04:19:23;;;;;;;7.53;2.83;;;8.80;99.90;;;;;;2611956;54;20158;-70
2023/01/12 04:25:20;;;;;;;8.93;2.50;;;8.80;99.90;;;;;;2614508;54;20138;-71
2023/01/12 04:31:08;;;;;;;6.90;2.60;;;8.80;99.90;;;;;;2613629;54;20495;-69
2023/01/12 04:36:56;;;;;;;8.77;2.60;;;8.80;99.90;;;;;;2612394;54;20423;-69
2023/01/12 04:49:32;;;;;;;17.00;2.20;;;8.60;99.90;;;;;;2610561;54;20540;-69
2023/01/12 04:58:41;;;;;;;8.30;2.90;;;8.50;99.90;;;;;;2611808;54;20407;-69
2023/01/12 05:04:28;;;;;;;11.00;2.50;;;8.50;99.90;;;;;;2612436;54;20129;-70
2023/01/12 05:10:21;;;;;;;11.27;2.40;;;8.60;99.90;;;;;;2612574;54;20629;-70
2023/01/12 05:19:32;;;;;;;4.63;1.87;;;8.60;99.90;;;;;;2612641;54;20391;-71
2023/01/12 05:21:58;;;;;;;6.73;2.37;;;8.40;99.90;;;;;;2613131;54;20535;-71
2023/01/12 05:24:23;;;;;;;4.67;1.93;;;8.50;99.90;;;;;;2614598;54;20416;-70
2023/01/12 05:30:11;;;;;;;5.83;1.97;;;8.40;99.90;;;;;;2613035;39;20643;-71
2023/01/12 05:48:38;;;;;;;5.40;1.90;;;8.40;99.90;;;;;;2613145;46;20427;-71
2023/01/12 05:58:33;;;;;;;4.40;1.67;;;8.20;99.90;;;;;;2612771;47;20391;-71
2023/01/12 06:04:20;;;;;;;3.70;2.30;;;8.30;99.90;;;;;;2609133;54;20428;-71
2023/01/12 06:10:08;;;;;;;6.43;1.40;;;8.20;99.90;;;;;;2612509;39;20224;-71
2023/01/12 06:16:04;;;;;;;5.60;1.63;;;8.20;99.90;;;;;;2611981;54;20511;-71
2023/01/12 06:21:54;;;;;;;2.80;1.13;;;8.20;99.90;;;;;;2613035;54;20387;-71
2023/01/12 06:27:41;;;;;;;4.33;0.90;;;8.40;99.90;;;;;;2612448;54;20378;-70
2023/01/12 06:33:30;;;;;;;6.13;1.77;;;8.30;99.90;;;;;;2612690;54;20184;-71
2023/01/12 06:39:17;;;;;;;3.73;1.20;;;8.40;99.90;;;;;;2613714;54;20402;-72
2023/01/12 06:45:06;;;;;;;3.30;1.17;;;8.50;99.90;;;;;;2614593;54;20949;-70
2023/01/12 06:51:00;;;;;;;4.60;2.27;;;8.40;99.90;;;;;;2612763;54;20515;-71
2023/01/12 07:00:25;;;;;;;10.83;1.93;;;8.40;99.90;;;;;;2612058;54;20452;-71
2023/01/12 07:06:13;;;;;;;7.73;1.80;;;8.40;99.90;;;;;;2612358;54;20162;-72
2023/01/12 07:12:01;;;;;;;9.43;1.47;;;8.30;99.90;;;;;;2610035;54;20760;-70
2023/01/12 07:17:54;;;;;;;4.73;1.70;;;8.40;99.90;;;;;;2606619;54;20979;-72
2023/01/12 07:23:42;;;;;;;3.13;1.70;;;8.30;99.90;;;;;;2612341;54;20415;-72
2023/01/12 07:29:29;;;;;;;3.53;1.73;;;8.50;99.90;;;;;;2613006;54;20392;-72
2023/01/12 07:35:18;;;;;;;5.07;1.60;;;8.50;99.90;;;;;;2614884;54;20157;-72
2023/01/12 07:42:21;;;;;;;4.63;2.00;;;8.60;99.90;;;;;;2613620;54;20896;-72
2023/01/12 07:44:29;;;;;;;2.93;1.47;;;8.50;99.90;;;;;;2614546;46;20425;-72
2023/01/12 07:46:54;;;;;;;3.90;1.20;;;8.60;99.90;;;;;;2611516;54;20415;-71
2023/01/12 07:49:20;;;;;;;8.67;2.13;;;8.70;99.90;;;;;;2613405;54;20426;-71
2023/01/12 07:51:45;;;;;;;5.57;1.77;;;8.70;99.90;;;;;;2610903;46;20166;-72
2023/01/12 07:57:35;;;;;;;7.57;1.90;;;8.80;99.90;;;;;;2613488;54;20278;-72
2023/01/12 08:03:22;;;;;;;2.70;1.30;;;8.90;99.90;;;;;;2612744;54;20386;-72
2023/01/12 08:09:10;;;;;;;4.13;2.50;;;8.90;99.90;;;;;;2614664;54;20645;-73
2023/01/12 08:14:59;;;;;;;5.07;2.07;;;9.00;99.90;;;;;;2609656;54;20134;-71
2023/01/12 08:20:47;;;;;;;7.50;1.43;;;9.10;99.90;;;;;;2613394;54;20378;-72
2023/01/12 08:26:41;;;;;;;8.17;2.17;;;9.10;99.90;;;;;;2612399;54;20410;-71
2023/01/12 08:32:29;;;;;;;4.33;1.40;;;9.20;99.90;;;;;;2610860;54;20527;-72
2023/01/12 08:38:18;;;;;;;6.40;1.70;;;9.20;99.90;;;;;;2613653;39;20445;-74
2023/01/12 08:44:10;;;;;;;4.23;1.20;;;9.30;99.90;;;;;;2614786;54;20879;-72
2023/01/12 08:49:59;;;;;;;2.57;1.20;;;9.20;99.90;;;;;;2614453;54;20940;-73
2023/01/12 08:59:08;;;;;;;2.77;1.27;;;9.30;99.90;;;;;;2612292;54;22764;-72
2023/01/12 09:04:56;;;;;;;4.90;2.47;;;9.40;99.90;;;;;;2614800;54;20154;-72
2023/01/12 09:10:43;;;;;;;6.50;2.40;;;9.40;99.90;;;;;;2613459;39;20529;-71
2023/01/12 09:16:32;;;;;;;3.03;1.63;;;9.60;99.90;;;;;;2614818;54;20354;-70
2023/01/12 09:22:20;;;;;;;6.63;1.57;;;9.60;99.90;;;;;;2609084;46;20418;-71
2023/01/12 09:28:07;;;;;;;3.07;1.20;;;9.70;99.90;;;;;;2613037;54;20134;-71
2023/01/12 09:33:56;;;;;;;2.27;1.17;;;9.80;99.90;;;;;;2608223;54;20705;-72
2023/01/12 09:39:43;;;;;;;4.57;0.90;;;9.80;99.90;;;;;;2610877;54;21055;-72
2023/01/12 10:01:30;;;;;;;4.80;1.57;;;10.10;99.90;;;;;;2608516;54;20473;-71
2023/01/12 10:07:18;;;;;;;1.70;0.80;;;10.30;99.90;;;;;;2610760;54;20172;-72
2023/01/12 10:13:07;;;;;;;2.23;0.70;;;10.30;99.90;;;;;;2612001;54;20371;-70
2023/01/12 10:19:01;;;;;;;11.80;2.53;;;10.50;99.90;;;;;;2612111;54;20504;-70
2023/01/12 10:24:48;;;;;;;3.00;0.80;;;10.50;99.90;;;;;;2612248;54;20416;-70
2023/01/12 10:30:38;;;;;;;4.63;1.20;;;10.60;99.90;;;;;;2612382;54;20953;-69
2023/01/12 10:36:26;;;;;;;5.90;1.37;;;10.70;99.90;;;;;;2614182;54;20442;-69
2023/01/12 10:53:12;;;;;;;2.93;1.10;;;10.60;99.90;;;;;;2611116;54;20378;-70
2023/01/12 10:56:23;;;;;;;1.90;0.90;;;10.60;99.90;;;;;;2613115;54;20480;-69
2023/01/12 10:58:52;;;;;;;4.27;1.23;;;10.60;99.90;;;;;;2613371;54;20419;-69
2023/01/12 11:04:41;;;;;;;2.70;1.30;;;10.50;99.90;;;;;;2613428;39;20801;-69
2023/01/12 11:16:48;;;;;;;4.30;1.07;;;10.30;99.90;;;;;;2609503;54;20414;-70
2023/01/12 11:22:36;;;;;;;3.33;1.30;;;10.50;99.90;;;;;;2611746;54;20472;-70
2023/01/12 11:45:24;;;;;;;1.90;0.90;;;10.60;99.90;;;;;;2613072;54;20391;-72
2023/01/12 11:51:12;;;;;;;3.00;1.13;;;10.70;99.90;;;;;;2612550;54;20432;-70
2023/01/12 12:27:26;;;;;;;2.63;1.30;;;10.20;99.90;;;;;;2612724;54;20423;-69
2023/01/12 12:33:36;;;;;;;2.93;1.30;;;10.20;99.90;;;;;;2611971;54;20432;-70
2023/01/12 12:52:34;;;;;;;5.70;1.73;;;10.10;99.90;;;;;;2613916;54;20402;-72
2023/01/12 13:08:33;;;;;;;4.00;1.20;;;10.20;99.90;;;;;;2612406;54;20398;-72
2023/01/12 13:14:30;;;;;;;3.23;1.33;;;10.60;99.90;;;;;;2613187;54;20375;-72
2023/01/12 13:20:17;;;;;;;2.63;1.43;;;10.50;99.90;;;;;;2610609;54;20452;-72
2023/01/12 13:39:19;;;;;;;2.70;1.33;;;10.70;99.90;;;;;;2611108;54;20427;-71
2023/01/12 13:45:17;;;;;;;2.47;1.30;;;10.50;99.90;;;;;;2614336;54;20910;-72
2023/01/12 14:01:43;;;;;;;4.43;1.10;;;10.50;99.90;;;;;;2612340;54;20444;-73
2023/01/12 14:33:39;;;;;;;3.93;1.40;;;10.20;99.90;;;;;;2612404;54;20394;-72
2023/01/12 14:52:14;;;;;;;4.10;0.97;;;10.20;99.90;;;;;;2612496;39;21173;-73
2023/01/12 15:01:42;;;;;;;2.83;1.07;;;10.20;99.90;;;;;;2612828;54;20423;-72
2023/01/12 15:13:58;;;;;;;2.70;1.80;;;10.20;99.90;;;;;;2614208;54;20431;-73
2023/01/12 15:25:52;;;;;;;3.00;1.30;;;10.20;99.90;;;;;;2614293;54;20399;-74
2023/01/12 15:31:40;;;;;;;5.77;1.17;;;10.10;99.90;;;;;;2612990;54;20158;-73
2023/01/12 15:37:28;;;;;;;4.20;1.67;;;10.10;99.90;;;;;;2614403;54;20375;-71
2023/01/12 15:43:16;;;;;;;4.27;1.00;;;10.20;99.90;;;;;;2615536;39;20706;-72
2023/01/12 15:49:04;;;;;;;2.90;1.60;;;10.10;99.90;;;;;;2614082;54;20391;-73
2023/01/12 15:54:52;;;;;;;3.07;1.30;;;10.10;99.90;;;;;;2614345;54;20408;-73
2023/01/12 16:04:02;;;;;;;2.70;1.77;;;10.00;99.90;;;;;;2612731;54;21000;-75
2023/01/12 16:09:50;;;;;;;2.10;1.00;;;10.00;99.90;;;;;;2613611;54;20159;-73
2023/01/12 16:15:37;;;;;;;2.17;1.23;;;10.10;99.90;;;;;;2614136;54;20134;-74
2023/01/12 16:21:26;;;;;;;2.13;1.30;;;10.00;99.90;;;;;;2613100;54;20150;-73
2023/01/12 16:27:15;;;;;;;1.87;0.90;;;10.00;99.90;;;;;;2614225;46;20452;-73
2023/01/12 16:33:02;;;;;;;3.53;3.20;;;10.00;99.90;;;;;;2614083;54;20403;-72
2023/01/12 16:38:50;;;;;;;2.20;1.20;;;10.10;99.90;;;;;;2613923;54;20147;-73
2023/01/12 16:44:38;;;;;;;3.90;1.40;;;10.20;99.90;;;;;;2614531;54;20379;-71
2023/01/12 16:50:26;;;;;;;2.23;1.43;;;10.10;99.90;;;;;;2615148;39;20762;-73
2023/01/12 16:56:15;;;;;;;4.27;1.83;;;10.20;99.90;;;;;;2613974;54;20230;-73
2023/01/12 16:59:27;;;;;;;3.70;1.57;;;10.20;99.90;;;;;;2611712;54;20424;-74
2023/01/12 17:01:53;;;;;;;3.23;1.13;;;10.10;99.90;;;;;;2613158;54;20454;-72
2023/01/12 17:07:41;;;;;;;4.13;1.73;;;10.10;99.90;;;;;;2612970;54;20496;-73
2023/01/12 17:13:29;;;;;;;5.10;2.03;;;10.00;99.90;;;;;;2613957;54;20154;-72
2023/01/12 17:19:18;;;;;;;5.87;1.53;;;10.10;99.90;;;;;;2611838;54;20492;-73
2023/01/12 17:25:06;;;;;;;3.63;1.90;;;10.10;99.90;;;;;;2613428;54;20403;-72
2023/01/12 17:30:55;;;;;;;3.10;1.57;;;10.10;99.90;;;;;;2610638;54;20420;-73
2023/01/12 17:36:43;;;;;;;2.83;1.63;;;10.20;99.90;;;;;;2614301;54;20395;-72
2023/01/12 17:48:39;;;;;;;3.57;1.90;;;10.20;99.90;;;;;;2613334;54;20362;-71
2023/01/12 17:54:27;;;;;;;2.40;1.40;;;10.20;99.90;;;;;;2613960;54;20673;-73
2023/01/12 18:03:59;;;;;;;4.30;1.40;;;10.20;99.90;;;;;;2613873;54;20420;-74
2023/01/12 18:09:47;;;;;;;2.97;1.67;;;10.10;99.90;;;;;;2612998;54;20403;-73
2023/01/12 18:15:34;;;;;;;2.13;1.47;;;10.20;99.90;;;;;;2615093;39;20524;-73
2023/01/12 18:21:26;;;;;;;3.47;2.23;;;10.00;99.90;;;;;;2614095;54;20654;-72
2023/01/12 18:27:13;;;;;;;4.53;1.47;;;10.10;99.90;;;;;;2614971;54;20956;-72
2023/01/12 18:33:02;;;;;;;3.00;1.17;;;10.10;99.90;;;;;;2613971;54;20231;-73
2023/01/12 18:38:50;;;;;;;2.13;1.20;;;10.10;99.90;;;;;;2615252;54;20405;-73
2023/01/12 18:44:38;;;;;;;2.67;1.23;;;10.20;99.90;;;;;;2615370;54;20410;-73
2023/01/12 18:56:35;;;;;;;2.33;1.37;;;10.00;99.90;;;;;;2615293;54;20399;-73
2023/01/12 18:59:27;;;;;;;5.00;2.20;;;10.20;99.90;;;;;;2616021;31;20916;-71
2023/01/12 19:01:54;;;;;;;2.97;1.10;;;10.10;99.90;;;;;;2615681;39;21263;-73
2023/01/12 19:32:36;;;;;;;2.43;1.23;;;10.00;99.90;;;;;;2614979;54;20387;-73
2023/01/12 19:38:24;;;;;;;5.60;1.33;;;10.10;99.90;;;;;;2615471;54;20134;-73
2023/01/12 19:44:11;;;;;;;4.60;1.47;;;10.10;99.90;;;;;;2615175;54;20139;-73
2023/01/12 19:50:00;;;;;;;2.17;1.23;;;10.10;99.90;;;;;;2615006;39;20559;-73
2023/01/12 19:55:51;;;;;;;3.20;1.90;;;10.10;99.90;;;;;;2616181;31;20818;-72
2023/01/12 20:01:38;;;;;;;2.73;1.40;;;10.10;99.90;;;;;;2614872;54;20478;-74
2023/01/12 20:07:26;;;;;;;5.17;1.70;;;10.00;99.90;;;;;;2615778;39;20547;-73
2023/01/12 20:13:14;;;;;;;2.90;1.87;;;10.00;99.90;;;;;;2615327;54;20129;-71
2023/01/12 20:19:03;;;;;;;5.30;1.70;;;10.00;99.90;;;;;;2615034;54;20211;-73
2023/01/12 20:24:50;;;;;;;3.10;1.93;;;10.00;99.90;;;;;;2615225;54;20379;-74
2023/01/12 20:30:40;;;;;;;5.63;2.00;;;20.40;99.90;;;;;;2614664;54;20133;-73
2023/01/12 20:36:28;;;;;;;3.60;1.90;;;20.50;99.90;;;;;;2615413;39;20818;-74
2023/01/12 20:42:16;;;;;;;3.47;1.10;;;20.60;99.90;;;;;;2614933;54;20414;-73
2023/01/12 20:48:03;;;;;;;3.17;1.03;;;20.70;99.90;;;;;;2615450;39;20533;-73
2023/01/12 20:53:51;;;;;;;1.83;0.97;;;20.80;99.90;;;;;;2614382;54;20129;-73
2023/01/12 21:04:00;;;;;;;4.03;1.70;;;20.90;99.90;;;;;;2614869;54;20939;-73
2023/01/12 21:09:47;;;;;;;6.13;2.80;;;20.90;99.90;;;;;;2614808;54;20398;-73
2023/01/12 21:15:38;;;;;;;4.40;2.93;;;20.90;99.90;;;;;;2614377;54;20114;-73
2023/01/12 21:21:25;;;;;;;4.57;2.53;;;21.00;99.90;;;;;;2613245;54;20527;-73
2023/01/12 21:27:13;;;;;;;5.83;2.60;;;21.00;99.90;;;;;;2614021;54;20138;-73
2023/01/12 21:33:01;;;;;;;3.70;2.00;;;21.00;99.90;;;;;;2612021;54;20133;-74
2023/01/12 21:38:52;;;;;;;3.00;1.57;;;21.00;99.90;;;;;;2614298;54;20299;-71
2023/01/12 21:44:40;;;;;;;2.50;1.50;;;21.00;99.90;;;;;;2614412;54;20412;-75
2023/01/12 21:50:29;;;;;;;2.33;1.50;;;21.00;99.90;;;;;;2613783;54;20163;-74
2023/01/12 21:56:17;;;;;;;1.93;1.10;;;21.10;99.90;;;;;;2612852;39;20698;-75
2023/01/12 21:59:28;;;;;;;2.53;1.20;;;21.20;99.90;;;;;;2613235;54;20423;-72
2023/01/12 22:01:53;;;;;;;4.17;1.87;;;21.20;99.90;;;;;;2613227;54;20677;-73
2023/01/12 22:07:41;;;;;;;2.87;1.27;;;21.20;99.90;;;;;;2613267;54;20133;-74
2023/01/12 22:13:29;;;;;;;2.43;1.47;;;21.30;99.90;;;;;;2614545;39;20546;-72
2023/01/12 22:19:17;;;;;;;3.40;1.63;;;21.30;99.90;;;;;;2614558;54;20130;-72
2023/01/12 22:25:10;;;;;;;3.10;1.43;;;21.30;99.90;;;;;;2612332;54;20122;-73
2023/01/12 22:31:04;;;;;;;2.27;1.77;;;21.40;99.90;;;;;;2612225;54;20420;-72
2023/01/12 22:36:52;;;;;;;2.60;1.53;;;21.40;99.90;;;;;;2613936;54;20387;-71
2023/01/12 22:48:50;;;;;;;3.47;1.50;;;21.20;99.90;;;;;;2614201;39;21177;-73
2023/01/12 22:54:38;;;;;;;3.13;1.80;;;21.30;99.90;;;;;;2611435;54;20422;-73
2023/01/12 23:10:43;;;;;;;2.03;1.13;;;21.20;99.90;;;;;;2611821;54;20387;-71
2023/01/12 23:16:30;;;;;;;3.00;1.67;;;21.20;99.90;;;;;;2613055;54;20384;-74
2023/01/12 23:22:17;;;;;;;6.17;1.23;;;21.00;99.90;;;;;;2612934;54;20127;-72
2023/01/12 23:28:06;;;;;;;2.97;1.73;;;20.90;99.90;;;;;;2613636;54;20257;-74
2023/01/12 23:33:53;;;;;;;2.67;1.17;;;20.90;99.90;;;;;;2610154;54;20476;-72
2023/01/12 23:39:40;;;;;;;1.70;0.90;;;20.90;99.90;;;;;;2613082;54;20141;-72
2023/01/12 23:45:28;;;;;;;2.60;1.27;;;20.90;99.90;;;;;;2614752;54;20137;-74
2023/01/12 23:51:16;;;;;;;2.67;1.40;;;20.80;99.90;;;;;;2614069;54;20146;-72
2023/01/12 23:57:04;;;;;;;3.87;1.53;;;20.80;99.90;;;;;;2614793;54;20133;-73
